Siesta Key, Florida
Current Conditions -  °F | °C
As of 8:53 AM on Thursday 30 Oct 2014 (Local Time) from KSRQ Reporting Station
Broken Clouds Broken Clouds  
Wind Chill: 71°   Ceiling: 11000
Heat Index: 71°   Visibility: 10mi
Dew Point: 66°   Wind: 3mph
Humidity: 84%   Direction: 110°ESE
Pressure: 29.97"   Gusts: NA
Location:  27.2613°N, 82.5431°W
Report Text: KSRQ 301253Z AUTO 11003KT 10SM BKN110 22/19 A2997 RMK AO2 SLP147 T02170189
Loading
Personal Weather Stations






























Interactive Weather Map New forecast layout! Learn more

10-Day Weather Forecast

Advertisements
Track Severe Weather on mobile